Cap San Lorenzo — CQEV — position and weather

sailwx.info

Track history (hours):
 
Tides and Currents Weather Stations Pressure Air Temp Water Temp Dewpoint Dewpoint Depression Visibility Wind Speed Wind Dir Waves Ship Positions

Cap San Lorenzo

Last reported at 2018-Mar-21 20:11 UTC. Time now 2018-Jun-24 16:25 UTC.
Position N 51°18' E 004°16'.
Warning: this ship's position is months out of date.

Length 333 m; draft 11.3 m.

Type: Ship (hazmat cat A). MMSI: 255805699.

Date/timePositionNaut miles runAvg speedWind from/ knotsBaromVisibWave heightAir tempDewpointWater temp
2018-Mar-21 20:11N 51°18' E 004°16'0 0.0
2018-Mar-21 19:59N 51°18' E 004°16'0 0.0
2018-Mar-21 19:29N 51°18' E 004°16'0 0.0
2018-Mar-21 19:00N 51°18' E 004°16'0 0.7
2018-Mar-21 18:30N 51°18' E 004°16'1 2.5
2018-Mar-21 18:00N 51°19' E 004°16'5 9.2
2018-Mar-21 17:31N 51°23' E 004°13'613.0
2018-Mar-21 17:00N 51°23' E 004°02'4 7.4
2018-Mar-21 16:30N 51°23' E 003°56'815.1
2018-Mar-21 16:00N 51°22' E 003°44'510.9
2018-Mar-21 15:30N 51°26' E 003°39'611.7
2018-Mar-21 15:00N 51°25' E 003°30'1020.9
2018-Mar-21 14:30N 51°25' E 003°13'916.9
2018-Mar-21 14:00N 51°26' E 002°60'816.3
2018-Mar-21 13:30N 51°33' E 003°07'917.3
2018-Mar-21 12:59N 51°41' E 003°13'714.8
2018-Mar-21 12:30N 51°48' E 003°16'712.3
2018-Mar-21 11:58N 51°55' E 003°18'1115.1
2018-Mar-21 11:16N 52°05' E 003°21'415.2
2018-Mar-21 11:01N 52°09' E 003°21'1015.3
2018-Mar-21 10:20N 52°19' E 003°24'615.1
2018-Mar-21 09:54N 52°25' E 003°27'815.1
2018-Mar-21 09:22N 52°33' E 003°29'3615.8
2018-Mar-21 07:03N 53°02' E 004°06'516.7
2018-Mar-21 06:45N 53°05' E 004°13'416.7
2018-Mar-21 06:31N 53°08' E 004°18'816.5
2018-Mar-21 06:00N 53°15' E 004°26'917.2
2018-Mar-21 05:31N 53°23' E 004°31'816.6
2018-Mar-21 05:00N 53°29' E 004°41'918.6
2018-Mar-21 04:31N 53°31' E 004°56'1019.4
2018-Mar-21 04:01N 53°35' E 005°11'1019.7
2018-Mar-21 03:29N 53°39' E 005°27'1219.9
2018-Mar-21 02:53N 53°42' E 005°46'7218.4
2018-Mar-20 22:59N 54°02' E 007°44'817.0
2018-Mar-20 22:30N 54°01' E 007°58'815.8
2018-Mar-20 22:00N 54°00' E 008°11'713.1
2018-Mar-20 21:30N 53°59' E 008°22'816.8
2018-Mar-20 21:00N 53°58' E 008°36'816.5
2018-Mar-20 20:30N 53°51' E 008°45'816.0
2018-Mar-20 20:00N 53°51' E 008°59'816.5
2018-Mar-20 19:30N 53°53' E 009°12'815.6
2018-Mar-20 19:01N 53°48' E 009°23'714.2
2018-Mar-20 18:30N 53°42' E 009°30'613.0
2018-Mar-20 18:00N 53°36' E 009°35'611.4
2018-Mar-20 17:30N 53°34' E 009°43'5 9.3
2018-Mar-20 17:00N 53°33' E 009°51'3 5.1
2018-Mar-20 16:30N 53°32' E 009°55'0 0.1
2018-Mar-20 16:01N 53°32' E 009°55'0 0.0
2018-Mar-20 15:30N 53°32' E 009°55'0 0.0
2018-Mar-20 15:00N 53°32' E 009°55'0 0.0
2018-Mar-20 14:30N 53°32' E 009°55'0 0.0
2018-Mar-20 14:01N 53°32' E 009°55'0 0.0
2018-Mar-20 13:30N 53°32' E 009°55'0 0.0
2018-Mar-20 13:00N 53°32' E 009°55'0 0.0
2018-Mar-20 12:30N 53°32' E 009°55'0 0.0
2018-Mar-20 12:00N 53°32' E 009°55'0 0.0
2018-Mar-20 11:30N 53°32' E 009°55'0 0.0
2018-Mar-20 11:00N 53°32' E 009°55'0 0.0
2018-Mar-20 10:31N 53°32' E 009°55'0 0.0
2018-Mar-20 10:01N 53°32' E 009°55'0 0.0
2018-Mar-20 09:31N 53°32' E 009°55'0 0.0
2018-Mar-20 09:00N 53°32' E 009°55'0 0.0
2018-Mar-20 08:31N 53°32' E 009°55'0 0.0
2018-Mar-20 08:00N 53°32' E 009°55'0 0.0
2018-Mar-20 07:31N 53°32' E 009°55'0 0.0
2018-Mar-20 07:00N 53°32' E 009°55'0 0.0
2018-Mar-20 06:31N 53°32' E 009°55'0 0.0
2018-Mar-20 06:00N 53°32' E 009°55'0 0.0
2018-Mar-20 05:30N 53°32' E 009°55'0 0.0
2018-Mar-20 05:00N 53°32' E 009°55'0 0.0
2018-Mar-20 04:30N 53°32' E 009°55'0 0.0
2018-Mar-20 04:00N 53°32' E 009°55'0 0.0
2018-Mar-20 03:30N 53°32' E 009°55'0 0.0
2018-Mar-20 03:01N 53°32' E 009°55'0 0.0
2018-Mar-20 02:31N 53°32' E 009°55'0 0.0
2018-Mar-20 02:01N 53°32' E 009°55'0 0.1
2018-Mar-20 01:30N 53°32' E 009°55'0 0.0
2018-Mar-20 01:00N 53°32' E 009°55'0 0.0
2018-Mar-20 00:30N 53°32' E 009°55'0 0.0
2018-Mar-20 00:00N 53°32' E 009°55'0 0.0
2018-Mar-19 23:30N 53°32' E 009°55'0 0.0
2018-Mar-19 23:00N 53°32' E 009°55'0 0.0
2018-Mar-19 22:30N 53°32' E 009°55'0 0.0
2018-Mar-19 22:00N 53°32' E 009°55'0 0.0
2018-Mar-19 21:31N 53°32' E 009°55'0 0.0
2018-Mar-19 21:01N 53°32' E 009°55'0 0.0
2018-Mar-19 20:30N 53°32' E 009°55'0 0.0
2018-Mar-19 20:00N 53°32' E 009°55'0 0.1
2018-Mar-19 19:30N 53°32' E 009°55'0 0.1
2018-Mar-19 19:00N 53°32' E 009°55'0 0.0
2018-Mar-19 18:31N 53°32' E 009°55'0 0.0
2018-Mar-19 18:00N 53°32' E 009°55'0 0.0
2018-Mar-19 17:30N 53°32' E 009°55'0 0.1
2018-Mar-19 17:01N 53°32' E 009°55'0 0.0
2018-Mar-19 16:30N 53°32' E 009°55'0 0.0
2018-Mar-19 16:00N 53°32' E 009°55'0 0.0
2018-Mar-19 15:30N 53°32' E 009°55'0 0.0
2018-Mar-19 15:00N 53°32' E 009°55'0 0.0
2018-Mar-19 14:30N 53°32' E 009°55'0 0.0
2018-Mar-19 14:00N 53°32' E 009°55'0 0.0
2018-Mar-19 13:30N 53°32' E 009°55'0 0.0
2018-Mar-19 13:01N 53°32' E 009°55'0 0.0
2018-Mar-19 12:30N 53°32' E 009°55'0 0.0
2018-Mar-19 12:01N 53°32' E 009°55'0 0.0
2018-Mar-19 11:30N 53°32' E 009°55'0 0.0
2018-Mar-19 11:00N 53°32' E 009°55'0 0.0
2018-Mar-19 10:31N 53°32' E 009°55'0 0.0
2018-Mar-19 10:00N 53°32' E 009°55'0 0.0
2018-Mar-19 09:31N 53°32' E 009°55'0 1.0
2018-Mar-19 09:01N 53°32' E 009°54'2 4.8
2018-Mar-19 08:30N 53°33' E 009°50'3 7.0
2018-Mar-19 08:01N 53°34' E 009°45'5 9.1
2018-Mar-19 07:30N 53°35' E 009°37'510.6
2018-Mar-19 07:00N 53°39' E 009°31'5 9.9
2018-Mar-19 06:31N 53°43' E 009°28'510.4
2018-Mar-19 06:00N 53°48' E 009°23'612.4
2018-Mar-19 05:31N 53°52' E 009°16'510.7
2018-Mar-19 05:00N 53°53' E 009°07'510.4
2018-Mar-19 04:30N 53°51' E 008°59'510.6
2018-Mar-19 04:00N 53°50' E 008°50'611.5
2018-Mar-19 03:30N 53°54' E 008°42'613.0
2018-Mar-19 03:00N 53°58' E 008°34'715.0
2018-Mar-19 02:31N 53°59' E 008°21'815.0
2018-Mar-19 02:00N 53°59' E 008°08'4 8.0
2018-Mar-19 01:30N 54°00' E 008°02'3 5.6
2018-Mar-19 00:59N 54°01' E 007°57'3 5.7
2018-Mar-19 00:30N 54°03' E 007°53'3 5.4
2018-Mar-18 23:59N 54°04' E 007°49'1 1.0
2018-Mar-18 23:30N 54°05' E 007°49'4 6.8
2018-Mar-18 22:57N 54°07' E 007°43'98 6.7
2018-Mar-18 08:16N 53°31' E 005°09'714.7
2018-Mar-18 07:46N 53°28' E 004°57'1712.9
2018-Mar-18 06:24N 53°16' E 004°37'614.5
2018-Mar-18 05:59N 53°10' E 004°32'715.3
2018-Mar-18 05:30N 53°04' E 004°25'815.6
2018-Mar-18 05:00N 52°57' E 004°20'816.1
2018-Mar-18 04:30N 52°50' E 004°14'815.1
2018-Mar-18 04:00N 52°44' E 004°06'714.6
2018-Mar-18 03:30N 52°39' E 003°58'915.2
2018-Mar-18 02:55N 52°33' E 003°47'816.2
2018-Mar-18 02:27N 52°29' E 003°36'715.5
2018-Mar-18 02:00N 52°26' E 003°26'5813.0
2018-Mar-17 21:33N 51°53' E 002°08'013.2
2018-Mar-17 21:30N 51°53' E 002°08'612.7
2018-Mar-17 21:00N 51°50' E 001°58'713.3
2018-Mar-17 20:31N 51°48' E 001°48'713.5
2018-Mar-17 20:01N 51°51' E 001°38'4 8.8
2018-Mar-17 19:31N 51°48' E 001°33'612.8
2018-Mar-17 19:00N 51°42' E 001°28'714.3
2018-Mar-17 18:30N 51°37' E 001°20'714.9
2018-Mar-17 18:00N 51°33' E 001°10'816.0
2018-Mar-17 17:30N 51°29' E 000°58'714.0
2018-Mar-17 17:00N 51°29' E 000°47'815.2
2018-Mar-17 16:30N 51°30' E 000°35'3 6.2
2018-Mar-17 16:01N 51°30' E 000°30'0 0.0
2018-Mar-17 15:31N 51°30' E 000°30'0 0.0
2018-Mar-17 15:01N 51°30' E 000°30'0 0.0
2018-Mar-17 14:31N 51°30' E 000°30'0 0.0
2018-Mar-17 14:01N 51°30' E 000°30'0 0.0
2018-Mar-17 13:31N 51°30' E 000°30'0 0.0
2018-Mar-17 13:01N 51°30' E 000°30'0 0.0
2018-Mar-17 12:31N 51°30' E 000°30'0 0.0
2018-Mar-17 12:01N 51°30' E 000°30'0 0.0
2018-Mar-17 11:31N 51°30' E 000°30'0 0.0
2018-Mar-17 11:01N 51°30' E 000°30'0 0.0
2018-Mar-17 10:30N 51°30' E 000°30'0 0.0
2018-Mar-17 10:01N 51°30' E 000°30'0 0.0
2018-Mar-17 09:31N 51°30' E 000°30'0 0.0
2018-Mar-17 09:01N 51°30' E 000°30'0 0.0
2018-Mar-17 08:31N 51°30' E 000°30'0 0.1
2018-Mar-17 08:01N 51°30' E 000°30'0 0.1
2018-Mar-17 07:30N 51°30' E 000°30'0 0.0
2018-Mar-17 07:01N 51°30' E 000°30'0 0.0
2018-Mar-17 06:31N 51°30' E 000°30'0 0.0
2018-Mar-17 06:01N 51°30' E 000°30'0 0.0
2018-Mar-17 05:31N 51°30' E 000°30'0 0.0
2018-Mar-17 05:01N 51°30' E 000°30'0 0.0
2018-Mar-17 04:31N 51°30' E 000°30'0 0.0
2018-Mar-17 04:01N 51°30' E 000°30'0 0.0
2018-Mar-17 03:31N 51°30' E 000°30'0 0.0
2018-Mar-17 03:01N 51°30' E 000°30'0 0.0
2018-Mar-17 02:30N 51°30' E 000°30'0 0.0
2018-Mar-17 02:01N 51°30' E 000°30'0 0.0
2018-Mar-17 01:31N 51°30' E 000°30'0 0.0
2018-Mar-17 01:01N 51°30' E 000°30'0 0.0
2018-Mar-17 00:30N 51°30' E 000°30'0 0.0
2018-Mar-17 00:00N 51°30' E 000°30'0 0.0
2018-Mar-16 23:31N 51°30' E 000°30'0 0.0
2018-Mar-16 23:00N 51°30' E 000°30'0 0.0
2018-Mar-16 22:31N 51°30' E 000°30'0 0.0
2018-Mar-16 22:01N 51°30' E 000°30'0 0.0
2018-Mar-16 21:31N 51°30' E 000°30'0 0.0
2018-Mar-16 21:00N 51°30' E 000°30'0 0.0
2018-Mar-16 20:30N 51°30' E 000°30'0 0.0
2018-Mar-16 20:01N 51°30' E 000°30'0 0.0
2018-Mar-16 19:31N 51°30' E 000°30'0 0.0
2018-Mar-16 19:01N 51°30' E 000°30'0 0.0
2018-Mar-16 18:31N 51°30' E 000°30'0 0.0
2018-Mar-16 18:00N 51°30' E 000°30'0 0.0
2018-Mar-16 17:30N 51°30' E 000°30'0 0.0
2018-Mar-16 17:01N 51°30' E 000°30'0 0.0
2018-Mar-16 16:31N 51°30' E 000°30'0 0.2
2018-Mar-16 16:01N 51°30' E 000°30'2 3.0
2018-Mar-16 15:30N 51°30' E 000°33'4 8.5
2018-Mar-16 15:00N 51°30' E 000°40'713.9
2018-Mar-16 14:31N 51°29' E 000°51'714.6
2018-Mar-16 14:01N 51°30' E 001°02'815.5
2018-Mar-16 13:30N 51°34' E 001°13'714.9
2018-Mar-16 13:01N 51°39' E 001°23'714.7
2018-Mar-16 12:31N 51°44' E 001°30'714.6
2018-Mar-16 12:00N 51°51' E 001°35'611.1
2018-Mar-16 11:30N 51°52' E 001°44'714.9
2018-Mar-16 11:00N 51°50' E 001°56'1019.7
2018-Mar-16 10:29N 51°54' E 002°11'1020.3
2018-Mar-16 09:59N 51°58' E 002°27'2320.7
2018-Mar-16 08:51N 52°03' E 003°04'721.3
2018-Mar-16 08:30N 52°03' E 003°16'1021.0
2018-Mar-16 08:00N 52°03' E 003°33'1019.2
2018-Mar-16 07:30N 52°03' E 003°48'510.5
2018-Mar-16 07:00N 52°02' E 003°57'612.8
2018-Mar-16 06:31N 51°58' E 004°05'1 2.4
2018-Mar-16 06:01N 51°57' E 004°04'0 0.0
2018-Mar-16 05:30N 51°57' E 004°04'0 0.0
2018-Mar-16 04:58N 51°57' E 004°04'0 0.0
2018-Mar-16 04:28N 51°57' E 004°04'0 0.0
2018-Mar-16 03:58N 51°57' E 004°04'0 0.0
2018-Mar-16 03:28N 51°57' E 004°04'0 0.0
2018-Mar-16 02:58N 51°57' E 004°04'0 0.0
2018-Mar-16 02:28N 51°57' E 004°04'0 0.0
2018-Mar-16 01:58N 51°57' E 004°04'0 0.0
2018-Mar-16 01:28N 51°57' E 004°04'0 0.0
2018-Mar-16 00:58N 51°57' E 004°04'0 0.0
2018-Mar-16 00:28N 51°57' E 004°04'0 0.0
2018-Mar-15 23:58N 51°57' E 004°04'0 0.0
2018-Mar-15 23:28N 51°57' E 004°04'0 0.0
2018-Mar-15 22:58N 51°57' E 004°04'0 0.0
2018-Mar-15 22:28N 51°57' E 004°04'0 0.0
2018-Mar-15 21:58N 51°57' E 004°04'0 0.0
2018-Mar-15 21:28N 51°57' E 004°04'0 0.0
2018-Mar-15 20:58N 51°57' E 004°04'0 0.0
2018-Mar-15 20:28N 51°57' E 004°04'0 0.0
2018-Mar-15 19:58N 51°57' E 004°04'0 0.0
2018-Mar-15 19:28N 51°57' E 004°04'0 0.0
2018-Mar-15 18:58N 51°57' E 004°04'0 0.0
2018-Mar-15 18:28N 51°57' E 004°04'0 0.0
2018-Mar-15 17:58N 51°57' E 004°04'0 0.0
2018-Mar-15 17:28N 51°57' E 004°04'0 0.0
2018-Mar-15 16:58N 51°57' E 004°04'0 0.0
2018-Mar-15 16:28N 51°57' E 004°04'0 0.0
2018-Mar-15 15:58N 51°57' E 004°04'0 0.0
2018-Mar-15 15:28N 51°57' E 004°04'0 0.0
2018-Mar-15 14:58N 51°57' E 004°04'0 0.0
2018-Mar-15 14:28N 51°57' E 004°04'0 0.0
2018-Mar-15 13:58N 51°57' E 004°04'0 0.1
2018-Mar-15 13:28N 51°57' E 004°04'0 0.0
2018-Mar-15 12:52N 51°57' E 004°04'0 0.0
2018-Mar-15 12:28N 51°57' E 004°04'0 0.0
2018-Mar-15 11:58N 51°57' E 004°04'0 0.0
2018-Mar-15 11:28N 51°57' E 004°04'0 0.0
2018-Mar-15 10:58N 51°57' E 004°04'0 0.0
2018-Mar-15 10:28N 51°57' E 004°04'0 0.0
2018-Mar-15 09:58N 51°57' E 004°04'0 0.0
2018-Mar-15 09:28N 51°57' E 004°04'0 0.0
2018-Mar-15 08:58N 51°57' E 004°04'0 0.0
2018-Mar-15 08:28N 51°57' E 004°04'0 0.0
2018-Mar-15 07:58N 51°57' E 004°04'0 0.0
2018-Mar-15 07:28N 51°57' E 004°04'0 0.0
2018-Mar-15 06:58N 51°57' E 004°04'0 0.0
2018-Mar-15 06:28N 51°57' E 004°04'0 0.0
2018-Mar-15 05:58N 51°57' E 004°04'0 0.0
2018-Mar-15 05:28N 51°57' E 004°04'0 0.0
2018-Mar-15 04:58N 51°57' E 004°04'0 0.0
2018-Mar-15 04:28N 51°57' E 004°04'0 0.0
2018-Mar-15 03:58N 51°57' E 004°04'0 0.0
2018-Mar-15 03:28N 51°57' E 004°04'0 0.0
2018-Mar-15 02:58N 51°57' E 004°04'0 0.0
2018-Mar-15 02:28N 51°57' E 004°04'0 0.0
2018-Mar-15 01:58N 51°57' E 004°04'0 0.0
2018-Mar-15 01:28N 51°57' E 004°04'0 0.0
2018-Mar-15 00:58N 51°57' E 004°04'0 0.0
2018-Mar-15 00:28N 51°57' E 004°04'0 0.0
2018-Mar-14 23:58N 51°57' E 004°04'0 0.0
2018-Mar-14 23:30N 51°57' E 004°04'1 2.1
2018-Mar-14 23:00N 51°58' E 004°05'3 6.9
2018-Mar-14 22:31N 51°60' E 004°01'713.5
2018-Mar-14 22:00N 51°60' E 003°50'4 9.0
2018-Mar-14 21:30N 51°58' E 003°43'815.4
2018-Mar-14 20:59N 51°56' E 003°30'1518.0
2018-Mar-14 20:10N 51°53' E 003°07'318.2
2018-Mar-14 20:00N 51°52' E 003°02'1418.2
2018-Mar-14 19:15N 51°47' E 002°42'417.9
2018-Mar-14 19:00N 51°44' E 002°36'1018.2
2018-Mar-14 18:29N 51°37' E 002°26'918.2
2018-Mar-14 18:00N 51°31' E 002°17'7550.3
2018-Mar-14 18:00N 51°24' E 002°12'2 4.9 140 / 301001.110.8 10.6 4.111.1
2018-Mar-14 17:30N 51°23' E 002°08'918.1
2018-Mar-14 17:00N 51°15' E 002°04'918.3
2018-Mar-14 16:31N 51°09' E 001°53'918.0
2018-Mar-14 16:00N 51°03' E 001°42'1019.0
2018-Mar-14 15:30N 50°56' E 001°31'1019.1
2018-Mar-14 15:00N 50°48' E 001°23'1019.0
2018-Mar-14 14:30N 50°40' E 001°16'1019.2
2018-Mar-14 14:00N 50°33' E 001°05'1018.4
2018-Mar-14 13:27N 50°29' E 000°50'818.7
2018-Mar-14 13:00N 50°27' E 000°38'918.6
2018-Mar-14 12:30N 50°24' E 000°24'918.7
2018-Mar-14 12:00N 50°22' E 000°09'918.8
2018-Mar-14 11:30N 50°19' W 000°05'918.7
2018-Mar-14 11:00N 50°17' W 000°19'1018.7
2018-Mar-14 10:30N 50°14' W 000°33'919.0
2018-Mar-14 10:00N 50°12' W 000°47'1019.4
2018-Mar-14 09:30N 50°09' W 001°02'1020.0
2018-Mar-14 09:00N 50°07' W 001°17'1020.5
2018-Mar-14 08:30N 50°04' W 001°32'1021.1
2018-Mar-14 08:00N 50°01' W 001°48'1121.6
2018-Mar-14 07:30N 49°59' W 002°04'1621.5
2018-Mar-14 06:46N 49°55' W 002°28'621.4
2018-Mar-14 06:30N 49°53' W 002°37'1121.4
2018-Mar-14 06:00N 49°49' W 002°52'1121.4
2018-Mar-14 05:30N 49°44' W 003°06'1121.2
2018-Mar-14 05:00N 49°39' W 003°21'6421.2
2018-Mar-14 01:58N 49°06' W 004°46'2021.4
2018-Mar-14 01:03N 48°57' W 005°12'721.4
2018-Mar-14 00:42N 48°53' W 005°22'621.3
2018-Mar-14 00:26N 48°50' W 005°30'1720.7
2018-Mar-13 23:35N 48°36' W 005°46'6317.8
2018-Mar-13 20:01N 47°40' W 006°29'28020.0
2018-Mar-13 06:00N 43°30' W 009°30'23419.5 180 / 151010.610.8 12.611.013.0
2018-Mar-12 18:00N 39°36' W 009°48'1318.3 190 / 161016.9 5.4 18.3 8.815.0
2018-Mar-12 17:16N 39°23' W 009°50'517.8
2018-Mar-12 17:00N 39°18' W 009°49'918.0
2018-Mar-12 16:30N 39°09' W 009°49'917.6
2018-Mar-12 16:00N 39°00' W 009°49'917.4
2018-Mar-12 15:30N 38°52' W 009°50'917.5
2018-Mar-12 15:00N 38°43' W 009°51'816.9
2018-Mar-12 14:30N 38°35' W 009°50'816.7
2018-Mar-12 14:00N 38°26' W 009°47'816.7
2018-Mar-12 13:30N 38°18' W 009°45'816.7
2018-Mar-12 13:00N 38°10' W 009°43'816.6
2018-Mar-12 12:30N 38°02' W 009°41'1216.4
2018-Mar-12 11:48N 37°51' W 009°38'516.7
2018-Mar-12 11:30N 37°46' W 009°36'7514.4
2018-Mar-12 06:17N 36°39' W 008°52'16217.5
2018-Mar-11 20:59N 35°58' W 005°37'715.0
2018-Mar-11 20:30N 36°00' W 005°29'  
Track history (hours):
 
Tides and Currents Weather Stations Pressure Air Temp Water Temp Dewpoint Dewpoint Depression Visibility Wind Speed Wind Dir Waves Ship Positions

Cap San Lorenzo

Last reported at 2018-Mar-21 20:11 UTC. Time now 2018-Jun-24 16:25 UTC.
Position N 51°18' E 004°16'.
Warning: this ship's position is months out of date.

Length 333 m; draft 11.3 m.

Type: Ship (hazmat cat A). MMSI: 255805699.

Date/timePositionNaut miles runAvg speedWind from/ knotsBaromVisibWave heightAir tempDewpointWater temp
2018-Mar-21 20:11N 51°18' E 004°16'0 0.0
2018-Mar-21 19:59N 51°18' E 004°16'0 0.0
2018-Mar-21 19:29N 51°18' E 004°16'0 0.0
2018-Mar-21 19:00N 51°18' E 004°16'0 0.7
2018-Mar-21 18:30N 51°18' E 004°16'1 2.5
2018-Mar-21 18:00N 51°19' E 004°16'5 9.2
2018-Mar-21 17:31N 51°23' E 004°13'613.0
2018-Mar-21 17:00N 51°23' E 004°02'4 7.4
2018-Mar-21 16:30N 51°23' E 003°56'815.1
2018-Mar-21 16:00N 51°22' E 003°44'510.9
2018-Mar-21 15:30N 51°26' E 003°39'611.7
2018-Mar-21 15:00N 51°25' E 003°30'1020.9
2018-Mar-21 14:30N 51°25' E 003°13'916.9
2018-Mar-21 14:00N 51°26' E 002°60'816.3
2018-Mar-21 13:30N 51°33' E 003°07'917.3
2018-Mar-21 12:59N 51°41' E 003°13'714.8
2018-Mar-21 12:30N 51°48' E 003°16'712.3
2018-Mar-21 11:58N 51°55' E 003°18'1115.1
2018-Mar-21 11:16N 52°05' E 003°21'415.2
2018-Mar-21 11:01N 52°09' E 003°21'1015.3
2018-Mar-21 10:20N 52°19' E 003°24'615.1
2018-Mar-21 09:54N 52°25' E 003°27'815.1
2018-Mar-21 09:22N 52°33' E 003°29'3615.8
2018-Mar-21 07:03N 53°02' E 004°06'516.7
2018-Mar-21 06:45N 53°05' E 004°13'416.7
2018-Mar-21 06:31N 53°08' E 004°18'816.5
2018-Mar-21 06:00N 53°15' E 004°26'917.2
2018-Mar-21 05:31N 53°23' E 004°31'816.6
2018-Mar-21 05:00N 53°29' E 004°41'918.6
2018-Mar-21 04:31N 53°31' E 004°56'1019.4
2018-Mar-21 04:01N 53°35' E 005°11'1019.7
2018-Mar-21 03:29N 53°39' E 005°27'1219.9
2018-Mar-21 02:53N 53°42' E 005°46'7218.4
2018-Mar-20 22:59N 54°02' E 007°44'817.0
2018-Mar-20 22:30N 54°01' E 007°58'815.8
2018-Mar-20 22:00N 54°00' E 008°11'713.1
2018-Mar-20 21:30N 53°59' E 008°22'816.8
2018-Mar-20 21:00N 53°58' E 008°36'816.5
2018-Mar-20 20:30N 53°51' E 008°45'816.0
2018-Mar-20 20:00N 53°51' E 008°59'816.5
2018-Mar-20 19:30N 53°53' E 009°12'815.6
2018-Mar-20 19:01N 53°48' E 009°23'714.2
2018-Mar-20 18:30N 53°42' E 009°30'613.0
2018-Mar-20 18:00N 53°36' E 009°35'611.4
2018-Mar-20 17:30N 53°34' E 009°43'5 9.3
2018-Mar-20 17:00N 53°33' E 009°51'3 5.1
2018-Mar-20 16:30N 53°32' E 009°55'0 0.1
2018-Mar-20 16:01N 53°32' E 009°55'0 0.0
2018-Mar-20 15:30N 53°32' E 009°55'0 0.0
2018-Mar-20 15:00N 53°32' E 009°55'0 0.0
2018-Mar-20 14:30N 53°32' E 009°55'0 0.0
2018-Mar-20 14:01N 53°32' E 009°55'0 0.0
2018-Mar-20 13:30N 53°32' E 009°55'0 0.0
2018-Mar-20 13:00N 53°32' E 009°55'0 0.0
2018-Mar-20 12:30N 53°32' E 009°55'0 0.0
2018-Mar-20 12:00N 53°32' E 009°55'0 0.0
2018-Mar-20 11:30N 53°32' E 009°55'0 0.0
2018-Mar-20 11:00N 53°32' E 009°55'0 0.0
2018-Mar-20 10:31N 53°32' E 009°55'0 0.0
2018-Mar-20 10:01N 53°32' E 009°55'0 0.0
2018-Mar-20 09:31N 53°32' E 009°55'0 0.0
2018-Mar-20 09:00N 53°32' E 009°55'0 0.0
2018-Mar-20 08:31N 53°32' E 009°55'0 0.0
2018-Mar-20 08:00N 53°32' E 009°55'0 0.0
2018-Mar-20 07:31N 53°32' E 009°55'0 0.0
2018-Mar-20 07:00N 53°32' E 009°55'0 0.0
2018-Mar-20 06:31N 53°32' E 009°55'0 0.0
2018-Mar-20 06:00N 53°32' E 009°55'0 0.0
2018-Mar-20 05:30N 53°32' E 009°55'0 0.0
2018-Mar-20 05:00N 53°32' E 009°55'0 0.0
2018-Mar-20 04:30N 53°32' E 009°55'0 0.0
2018-Mar-20 04:00N 53°32' E 009°55'0 0.0
2018-Mar-20 03:30N 53°32' E 009°55'0 0.0
2018-Mar-20 03:01N 53°32' E 009°55'0 0.0
2018-Mar-20 02:31N 53°32' E 009°55'0 0.0
2018-Mar-20 02:01N 53°32' E 009°55'0 0.1
2018-Mar-20 01:30N 53°32' E 009°55'0 0.0
2018-Mar-20 01:00N 53°32' E 009°55'0 0.0
2018-Mar-20 00:30N 53°32' E 009°55'0 0.0
2018-Mar-20 00:00N 53°32' E 009°55'0 0.0
2018-Mar-19 23:30N 53°32' E 009°55'0 0.0
2018-Mar-19 23:00N 53°32' E 009°55'0 0.0
2018-Mar-19 22:30N 53°32' E 009°55'0 0.0
2018-Mar-19 22:00N 53°32' E 009°55'0 0.0
2018-Mar-19 21:31N 53°32' E 009°55'0 0.0
2018-Mar-19 21:01N 53°32' E 009°55'0 0.0
2018-Mar-19 20:30N 53°32' E 009°55'0 0.0
2018-Mar-19 20:00N 53°32' E 009°55'0 0.1
2018-Mar-19 19:30N 53°32' E 009°55'0 0.1
2018-Mar-19 19:00N 53°32' E 009°55'0 0.0
2018-Mar-19 18:31N 53°32' E 009°55'0 0.0
2018-Mar-19 18:00N 53°32' E 009°55'0 0.0
2018-Mar-19 17:30N 53°32' E 009°55'0 0.1
2018-Mar-19 17:01N 53°32' E 009°55'0 0.0
2018-Mar-19 16:30N 53°32' E 009°55'0 0.0
2018-Mar-19 16:00N 53°32' E 009°55'0 0.0
2018-Mar-19 15:30N 53°32' E 009°55'0 0.0
2018-Mar-19 15:00N 53°32' E 009°55'0 0.0
2018-Mar-19 14:30N 53°32' E 009°55'0 0.0
2018-Mar-19 14:00N 53°32' E 009°55'0 0.0
2018-Mar-19 13:30N 53°32' E 009°55'0 0.0
2018-Mar-19 13:01N 53°32' E 009°55'0 0.0
2018-Mar-19 12:30N 53°32' E 009°55'0 0.0
2018-Mar-19 12:01N 53°32' E 009°55'0 0.0
2018-Mar-19 11:30N 53°32' E 009°55'0 0.0
2018-Mar-19 11:00N 53°32' E 009°55'0 0.0
2018-Mar-19 10:31N 53°32' E 009°55'0 0.0
2018-Mar-19 10:00N 53°32' E 009°55'0 0.0
2018-Mar-19 09:31N 53°32' E 009°55'0 1.0
2018-Mar-19 09:01N 53°32' E 009°54'2 4.8
2018-Mar-19 08:30N 53°33' E 009°50'3 7.0
2018-Mar-19 08:01N 53°34' E 009°45'5 9.1
2018-Mar-19 07:30N 53°35' E 009°37'510.6
2018-Mar-19 07:00N 53°39' E 009°31'5 9.9
2018-Mar-19 06:31N 53°43' E 009°28'510.4
2018-Mar-19 06:00N 53°48' E 009°23'612.4
2018-Mar-19 05:31N 53°52' E 009°16'510.7
2018-Mar-19 05:00N 53°53' E 009°07'510.4
2018-Mar-19 04:30N 53°51' E 008°59'510.6
2018-Mar-19 04:00N 53°50' E 008°50'611.5
2018-Mar-19 03:30N 53°54' E 008°42'613.0
2018-Mar-19 03:00N 53°58' E 008°34'715.0
2018-Mar-19 02:31N 53°59' E 008°21'815.0
2018-Mar-19 02:00N 53°59' E 008°08'4 8.0
2018-Mar-19 01:30N 54°00' E 008°02'3 5.6
2018-Mar-19 00:59N 54°01' E 007°57'3 5.7
2018-Mar-19 00:30N 54°03' E 007°53'3 5.4
2018-Mar-18 23:59N 54°04' E 007°49'1 1.0
2018-Mar-18 23:30N 54°05' E 007°49'4 6.8
2018-Mar-18 22:57N 54°07' E 007°43'98 6.7
2018-Mar-18 08:16N 53°31' E 005°09'714.7
2018-Mar-18 07:46N 53°28' E 004°57'1712.9
2018-Mar-18 06:24N 53°16' E 004°37'614.5
2018-Mar-18 05:59N 53°10' E 004°32'715.3
2018-Mar-18 05:30N 53°04' E 004°25'815.6
2018-Mar-18 05:00N 52°57' E 004°20'816.1
2018-Mar-18 04:30N 52°50' E 004°14'815.1
2018-Mar-18 04:00N 52°44' E 004°06'714.6
2018-Mar-18 03:30N 52°39' E 003°58'915.2
2018-Mar-18 02:55N 52°33' E 003°47'816.2
2018-Mar-18 02:27N 52°29' E 003°36'715.5
2018-Mar-18 02:00N 52°26' E 003°26'5813.0
2018-Mar-17 21:33N 51°53' E 002°08'013.2
2018-Mar-17 21:30N 51°53' E 002°08'612.7
2018-Mar-17 21:00N 51°50' E 001°58'713.3
2018-Mar-17 20:31N 51°48' E 001°48'713.5
2018-Mar-17 20:01N 51°51' E 001°38'4 8.8
2018-Mar-17 19:31N 51°48' E 001°33'612.8
2018-Mar-17 19:00N 51°42' E 001°28'714.3
2018-Mar-17 18:30N 51°37' E 001°20'714.9
2018-Mar-17 18:00N 51°33' E 001°10'816.0
2018-Mar-17 17:30N 51°29' E 000°58'714.0
2018-Mar-17 17:00N 51°29' E 000°47'815.2
2018-Mar-17 16:30N 51°30' E 000°35'3 6.2
2018-Mar-17 16:01N 51°30' E 000°30'0 0.0
2018-Mar-17 15:31N 51°30' E 000°30'0 0.0
2018-Mar-17 15:01N 51°30' E 000°30'0 0.0
2018-Mar-17 14:31N 51°30' E 000°30'0 0.0
2018-Mar-17 14:01N 51°30' E 000°30'0 0.0
2018-Mar-17 13:31N 51°30' E 000°30'0 0.0
2018-Mar-17 13:01N 51°30' E 000°30'0 0.0
2018-Mar-17 12:31N 51°30' E 000°30'0 0.0
2018-Mar-17 12:01N 51°30' E 000°30'0 0.0
2018-Mar-17 11:31N 51°30' E 000°30'0 0.0
2018-Mar-17 11:01N 51°30' E 000°30'0 0.0
2018-Mar-17 10:30N 51°30' E 000°30'0 0.0
2018-Mar-17 10:01N 51°30' E 000°30'0 0.0
2018-Mar-17 09:31N 51°30' E 000°30'0 0.0
2018-Mar-17 09:01N 51°30' E 000°30'0 0.0
2018-Mar-17 08:31N 51°30' E 000°30'0 0.1
2018-Mar-17 08:01N 51°30' E 000°30'0 0.1
2018-Mar-17 07:30N 51°30' E 000°30'0 0.0
2018-Mar-17 07:01N 51°30' E 000°30'0 0.0
2018-Mar-17 06:31N 51°30' E 000°30'0 0.0
2018-Mar-17 06:01N 51°30' E 000°30'0 0.0
2018-Mar-17 05:31N 51°30' E 000°30'0 0.0
2018-Mar-17 05:01N 51°30' E 000°30'0 0.0
2018-Mar-17 04:31N 51°30' E 000°30'0 0.0
2018-Mar-17 04:01N 51°30' E 000°30'0 0.0
2018-Mar-17 03:31N 51°30' E 000°30'0 0.0
2018-Mar-17 03:01N 51°30' E 000°30'0 0.0
2018-Mar-17 02:30N 51°30' E 000°30'0 0.0
2018-Mar-17 02:01N 51°30' E 000°30'0 0.0
2018-Mar-17 01:31N 51°30' E 000°30'0 0.0
2018-Mar-17 01:01N 51°30' E 000°30'0 0.0
2018-Mar-17 00:30N 51°30' E 000°30'0 0.0
2018-Mar-17 00:00N 51°30' E 000°30'0 0.0
2018-Mar-16 23:31N 51°30' E 000°30'0 0.0
2018-Mar-16 23:00N 51°30' E 000°30'0 0.0
2018-Mar-16 22:31N 51°30' E 000°30'0 0.0
2018-Mar-16 22:01N 51°30' E 000°30'0 0.0
2018-Mar-16 21:31N 51°30' E 000°30'0 0.0
2018-Mar-16 21:00N 51°30' E 000°30'0 0.0
2018-Mar-16 20:30N 51°30' E 000°30'0 0.0
2018-Mar-16 20:01N 51°30' E 000°30'0 0.0
2018-Mar-16 19:31N 51°30' E 000°30'0 0.0
2018-Mar-16 19:01N 51°30' E 000°30'0 0.0
2018-Mar-16 18:31N 51°30' E 000°30'0 0.0
2018-Mar-16 18:00N 51°30' E 000°30'0 0.0
2018-Mar-16 17:30N 51°30' E 000°30'0 0.0
2018-Mar-16 17:01N 51°30' E 000°30'0 0.0
2018-Mar-16 16:31N 51°30' E 000°30'0 0.2
2018-Mar-16 16:01N 51°30' E 000°30'2 3.0
2018-Mar-16 15:30N 51°30' E 000°33'4 8.5
2018-Mar-16 15:00N 51°30' E 000°40'713.9
2018-Mar-16 14:31N 51°29' E 000°51'714.6
2018-Mar-16 14:01N 51°30' E 001°02'815.5
2018-Mar-16 13:30N 51°34' E 001°13'714.9
2018-Mar-16 13:01N 51°39' E 001°23'714.7
2018-Mar-16 12:31N 51°44' E 001°30'714.6
2018-Mar-16 12:00N 51°51' E 001°35'611.1
2018-Mar-16 11:30N 51°52' E 001°44'714.9
2018-Mar-16 11:00N 51°50' E 001°56'1019.7
2018-Mar-16 10:29N 51°54' E 002°11'1020.3
2018-Mar-16 09:59N 51°58' E 002°27'2320.7
2018-Mar-16 08:51N 52°03' E 003°04'721.3
2018-Mar-16 08:30N 52°03' E 003°16'1021.0
2018-Mar-16 08:00N 52°03' E 003°33'1019.2
2018-Mar-16 07:30N 52°03' E 003°48'510.5
2018-Mar-16 07:00N 52°02' E 003°57'612.8
2018-Mar-16 06:31N 51°58' E 004°05'1 2.4
2018-Mar-16 06:01N 51°57' E 004°04'0 0.0
2018-Mar-16 05:30N 51°57' E 004°04'0 0.0
2018-Mar-16 04:58N 51°57' E 004°04'0 0.0
2018-Mar-16 04:28N 51°57' E 004°04'0 0.0
2018-Mar-16 03:58N 51°57' E 004°04'0 0.0
2018-Mar-16 03:28N 51°57' E 004°04'0 0.0
2018-Mar-16 02:58N 51°57' E 004°04'0 0.0
2018-Mar-16 02:28N 51°57' E 004°04'0 0.0
2018-Mar-16 01:58N 51°57' E 004°04'0 0.0
2018-Mar-16 01:28N 51°57' E 004°04'0 0.0
2018-Mar-16 00:58N 51°57' E 004°04'0 0.0
2018-Mar-16 00:28N 51°57' E 004°04'0 0.0
2018-Mar-15 23:58N 51°57' E 004°04'0 0.0
2018-Mar-15 23:28N 51°57' E 004°04'0 0.0
2018-Mar-15 22:58N 51°57' E 004°04'0 0.0
2018-Mar-15 22:28N 51°57' E 004°04'0 0.0
2018-Mar-15 21:58N 51°57' E 004°04'0 0.0
2018-Mar-15 21:28N 51°57' E 004°04'0 0.0
2018-Mar-15 20:58N 51°57' E 004°04'0 0.0
2018-Mar-15 20:28N 51°57' E 004°04'0 0.0
2018-Mar-15 19:58N 51°57' E 004°04'0 0.0
2018-Mar-15 19:28N 51°57' E 004°04'0 0.0
2018-Mar-15 18:58N 51°57' E 004°04'0 0.0
2018-Mar-15 18:28N 51°57' E 004°04'0 0.0
2018-Mar-15 17:58N 51°57' E 004°04'0 0.0
2018-Mar-15 17:28N 51°57' E 004°04'0 0.0
2018-Mar-15 16:58N 51°57' E 004°04'0 0.0
2018-Mar-15 16:28N 51°57' E 004°04'0 0.0
2018-Mar-15 15:58N 51°57' E 004°04'0 0.0
2018-Mar-15 15:28N 51°57' E 004°04'0 0.0
2018-Mar-15 14:58N 51°57' E 004°04'0 0.0
2018-Mar-15 14:28N 51°57' E 004°04'0 0.0
2018-Mar-15 13:58N 51°57' E 004°04'0 0.1
2018-Mar-15 13:28N 51°57' E 004°04'0 0.0
2018-Mar-15 12:52N 51°57' E 004°04'0 0.0
2018-Mar-15 12:28N 51°57' E 004°04'0 0.0
2018-Mar-15 11:58N 51°57' E 004°04'0 0.0
2018-Mar-15 11:28N 51°57' E 004°04'0 0.0
2018-Mar-15 10:58N 51°57' E 004°04'0 0.0
2018-Mar-15 10:28N 51°57' E 004°04'0 0.0
2018-Mar-15 09:58N 51°57' E 004°04'0 0.0
2018-Mar-15 09:28N 51°57' E 004°04'0 0.0
2018-Mar-15 08:58N 51°57' E 004°04'0 0.0
2018-Mar-15 08:28N 51°57' E 004°04'0 0.0
2018-Mar-15 07:58N 51°57' E 004°04'0 0.0
2018-Mar-15 07:28N 51°57' E 004°04'0 0.0
2018-Mar-15 06:58N 51°57' E 004°04'0 0.0
2018-Mar-15 06:28N 51°57' E 004°04'0 0.0
2018-Mar-15 05:58N 51°57' E 004°04'0 0.0
2018-Mar-15 05:28N 51°57' E 004°04'0 0.0
2018-Mar-15 04:58N 51°57' E 004°04'0 0.0
2018-Mar-15 04:28N 51°57' E 004°04'0 0.0
2018-Mar-15 03:58N 51°57' E 004°04'0 0.0
2018-Mar-15 03:28N 51°57' E 004°04'0 0.0
2018-Mar-15 02:58N 51°57' E 004°04'0 0.0
2018-Mar-15 02:28N 51°57' E 004°04'0 0.0
2018-Mar-15 01:58N 51°57' E 004°04'0 0.0
2018-Mar-15 01:28N 51°57' E 004°04'0 0.0
2018-Mar-15 00:58N 51°57' E 004°04'0 0.0
2018-Mar-15 00:28N 51°57' E 004°04'0 0.0
2018-Mar-14 23:58N 51°57' E 004°04'0 0.0
2018-Mar-14 23:30N 51°57' E 004°04'1 2.1
2018-Mar-14 23:00N 51°58' E 004°05'3 6.9
2018-Mar-14 22:31N 51°60' E 004°01'713.5
2018-Mar-14 22:00N 51°60' E 003°50'4 9.0
2018-Mar-14 21:30N 51°58' E 003°43'815.4
2018-Mar-14 20:59N 51°56' E 003°30'1518.0
2018-Mar-14 20:10N 51°53' E 003°07'318.2
2018-Mar-14 20:00N 51°52' E 003°02'1418.2
2018-Mar-14 19:15N 51°47' E 002°42'417.9
2018-Mar-14 19:00N 51°44' E 002°36'1018.2
2018-Mar-14 18:29N 51°37' E 002°26'918.2
2018-Mar-14 18:00N 51°31' E 002°17'7550.3
2018-Mar-14 18:00N 51°24' E 002°12'2 4.9 140 / 301001.110.8 10.6 4.111.1
2018-Mar-14 17:30N 51°23' E 002°08'918.1
2018-Mar-14 17:00N 51°15' E 002°04'918.3
2018-Mar-14 16:31N 51°09' E 001°53'918.0
2018-Mar-14 16:00N 51°03' E 001°42'1019.0
2018-Mar-14 15:30N 50°56' E 001°31'1019.1
2018-Mar-14 15:00N 50°48' E 001°23'1019.0
2018-Mar-14 14:30N 50°40' E 001°16'1019.2
2018-Mar-14 14:00N 50°33' E 001°05'1018.4
2018-Mar-14 13:27N 50°29' E 000°50'818.7
2018-Mar-14 13:00N 50°27' E 000°38'918.6
2018-Mar-14 12:30N 50°24' E 000°24'918.7
2018-Mar-14 12:00N 50°22' E 000°09'918.8
2018-Mar-14 11:30N 50°19' W 000°05'918.7
2018-Mar-14 11:00N 50°17' W 000°19'1018.7
2018-Mar-14 10:30N 50°14' W 000°33'919.0
2018-Mar-14 10:00N 50°12' W 000°47'1019.4
2018-Mar-14 09:30N 50°09' W 001°02'1020.0
2018-Mar-14 09:00N 50°07' W 001°17'1020.5
2018-Mar-14 08:30N 50°04' W 001°32'1021.1
2018-Mar-14 08:00N 50°01' W 001°48'1121.6
2018-Mar-14 07:30N 49°59' W 002°04'1621.5
2018-Mar-14 06:46N 49°55' W 002°28'621.4
2018-Mar-14 06:30N 49°53' W 002°37'1121.4
2018-Mar-14 06:00N 49°49' W 002°52'1121.4
2018-Mar-14 05:30N 49°44' W 003°06'1121.2
2018-Mar-14 05:00N 49°39' W 003°21'6421.2
2018-Mar-14 01:58N 49°06' W 004°46'2021.4
2018-Mar-14 01:03N 48°57' W 005°12'721.4
2018-Mar-14 00:42N 48°53' W 005°22'621.3
2018-Mar-14 00:26N 48°50' W 005°30'1720.7
2018-Mar-13 23:35N 48°36' W 005°46'6317.8
2018-Mar-13 20:01N 47°40' W 006°29'28020.0
2018-Mar-13 06:00N 43°30' W 009°30'23419.5 180 / 151010.610.8 12.611.013.0
2018-Mar-12 18:00N 39°36' W 009°48'1318.3 190 / 161016.9 5.4 18.3 8.815.0
2018-Mar-12 17:16N 39°23' W 009°50'517.8
2018-Mar-12 17:00N 39°18' W 009°49'918.0
2018-Mar-12 16:30N 39°09' W 009°49'917.6
2018-Mar-12 16:00N 39°00' W 009°49'917.4
2018-Mar-12 15:30N 38°52' W 009°50'917.5
2018-Mar-12 15:00N 38°43' W 009°51'816.9
2018-Mar-12 14:30N 38°35' W 009°50'816.7
2018-Mar-12 14:00N 38°26' W 009°47'816.7
2018-Mar-12 13:30N 38°18' W 009°45'816.7
2018-Mar-12 13:00N 38°10' W 009°43'816.6
2018-Mar-12 12:30N 38°02' W 009°41'1216.4
2018-Mar-12 11:48N 37°51' W 009°38'516.7
2018-Mar-12 11:30N 37°46' W 009°36'7514.4
2018-Mar-12 06:17N 36°39' W 008°52'16217.5
2018-Mar-11 20:59N 35°58' W 005°37'715.0
2018-Mar-11 20:30N 36°00' W 005°29'  

Dump ship's entire track history